sensor_id;sensor_type;location;lat;lon;timestamp;pressure;altitude;pressure_sealevel;temperature;humidity
26531;BME280;14201;43.188;24.160;2023-05-03T00:00:47;99920.25;;;12.70;63.69
26531;BME280;14201;43.188;24.160;2023-05-03T00:03:13;99902.59;;;12.41;64.78
26531;BME280;14201;43.188;24.160;2023-05-03T00:05:38;99893.69;;;12.59;63.69
26531;BME280;14201;43.188;24.160;2023-05-03T00:08:04;99919.09;;;12.86;62.86
26531;BME280;14201;43.188;24.160;2023-05-03T00:10:30;99922.81;;;12.92;62.89
26531;BME280;14201;43.188;24.160;2023-05-03T00:12:55;99918.66;;;12.97;63.08
26531;BME280;14201;43.188;24.160;2023-05-03T00:15:21;99917.78;;;12.97;62.88
26531;BME280;14201;43.188;24.160;2023-05-03T00:17:47;99922.66;;;13.12;62.14
26531;BME280;14201;43.188;24.160;2023-05-03T00:20:12;99938.34;;;13.34;61.85
26531;BME280;14201;43.188;24.160;2023-05-03T00:22:39;99931.53;;;13.39;61.84
26531;BME280;14201;43.188;24.160;2023-05-03T00:25:07;99921.06;;;13.39;62.11
26531;BME280;14201;43.188;24.160;2023-05-03T00:27:33;99932.59;;;13.45;61.47
26531;BME280;14201;43.188;24.160;2023-05-03T00:29:58;99934.63;;;13.29;64.72
26531;BME280;14201;43.188;24.160;2023-05-03T00:32:24;99945.69;;;13.22;64.45
26531;BME280;14201;43.188;24.160;2023-05-03T00:34:54;99939.50;;;13.20;65.67
26531;BME280;14201;43.188;24.160;2023-05-03T00:37:21;99948.00;;;13.13;65.16
26531;BME280;14201;43.188;24.160;2023-05-03T00:39:46;99932.09;;;13.07;65.07
26531;BME280;14201;43.188;24.160;2023-05-03T00:42:12;99932.31;;;13.13;65.36
26531;BME280;14201;43.188;24.160;2023-05-03T00:44:37;99926.28;;;13.15;65.20
26531;BME280;14201;43.188;24.160;2023-05-03T00:47:03;99923.81;;;13.20;65.29
26531;BME280;14201;43.188;24.160;2023-05-03T00:49:29;99934.50;;;13.02;66.05
26531;BME280;14201;43.188;24.160;2023-05-03T00:51:55;99936.59;;;12.66;67.02
26531;BME280;14201;43.188;24.160;2023-05-03T00:54:25;99933.78;;;12.59;67.90
26531;BME280;14201;43.188;24.160;2023-05-03T00:56:51;99920.44;;;12.31;69.01
26531;BME280;14201;43.188;24.160;2023-05-03T00:59:17;99923.22;;;12.56;67.94
26531;BME280;14201;43.188;24.160;2023-05-03T01:01:48;99925.34;;;12.67;67.54
26531;BME280;14201;43.188;24.160;2023-05-03T01:04:14;99913.09;;;12.66;68.32
26531;BME280;14201;43.188;24.160;2023-05-03T01:06:50;99925.06;;;12.83;68.37
26531;BME280;14201;43.188;24.160;2023-05-03T01:09:38;99899.66;;;12.79;67.88
26531;BME280;14201;43.188;24.160;2023-05-03T01:17:14;99926.72;;;12.79;67.99
26531;BME280;14201;43.188;24.160;2023-05-03T01:19:50;99934.50;;;12.12;71.97
26531;BME280;14201;43.188;24.160;2023-05-03T01:22:31;99929.84;;;12.26;70.41
26531;BME280;14201;43.188;24.160;2023-05-03T01:25:24;99944.22;;;12.37;70.41
26531;BME280;14201;43.188;24.160;2023-05-03T01:27:51;99929.81;;;12.47;69.87
26531;BME280;14201;43.188;24.160;2023-05-03T01:30:19;99918.41;;;12.45;69.01
26531;BME280;14201;43.188;24.160;2023-05-03T01:33:07;99907.69;;;12.38;68.36
26531;BME280;14201;43.188;24.160;2023-05-03T01:35:52;99913.56;;;12.33;69.71
26531;BME280;14201;43.188;24.160;2023-05-03T01:38:19;99919.53;;;12.51;69.25
26531;BME280;14201;43.188;24.160;2023-05-03T01:40:52;99925.00;;;12.14;70.28
26531;BME280;14201;43.188;24.160;2023-05-03T01:43:20;99926.72;;;11.71;71.90
26531;BME280;14201;43.188;24.160;2023-05-03T01:45:47;99943.03;;;11.46;72.92
26531;BME280;14201;43.188;24.160;2023-05-03T01:48:15;99923.56;;;11.59;72.11
26531;BME280;14201;43.188;24.160;2023-05-03T01:50:41;99918.03;;;11.72;71.76
26531;BME280;14201;43.188;24.160;2023-05-03T01:53:07;99912.03;;;11.94;71.78
26531;BME280;14201;43.188;24.160;2023-05-03T01:55:32;99904.94;;;12.13;70.76
26531;BME280;14201;43.188;24.160;2023-05-03T01:57:58;99904.31;;;12.18;72.07
26531;BME280;14201;43.188;24.160;2023-05-03T02:00:24;99912.41;;;12.04;71.55
26531;BME280;14201;43.188;24.160;2023-05-03T02:02:50;99927.97;;;11.81;72.44
26531;BME280;14201;43.188;24.160;2023-05-03T02:05:15;99934.69;;;11.55;73.33
26531;BME280;14201;43.188;24.160;2023-05-03T02:07:41;99913.78;;;11.34;73.50
26531;BME280;14201;43.188;24.160;2023-05-03T02:10:07;99879.88;;;11.13;75.17
26531;BME280;14201;43.188;24.160;2023-05-03T02:12:32;99894.41;;;11.48;75.46
26531;BME280;14201;43.188;24.160;2023-05-03T02:14:58;99894.81;;;11.78;74.01
26531;BME280;14201;43.188;24.160;2023-05-03T02:17:24;99897.97;;;11.91;72.77
26531;BME280;14201;43.188;24.160;2023-05-03T02:19:53;99890.16;;;12.13;71.98
26531;BME280;14201;43.188;24.160;2023-05-03T02:22:19;99875.97;;;12.07;72.11
26531;BME280;14201;43.188;24.160;2023-05-03T02:24:44;99893.66;;;11.51;74.82
26531;BME280;14201;43.188;24.160;2023-05-03T02:27:10;99892.78;;;11.50;75.95
26531;BME280;14201;43.188;24.160;2023-05-03T02:29:36;99896.25;;;11.51;74.81
26531;BME280;14201;43.188;24.160;2023-05-03T02:32:02;99899.66;;;11.69;73.83
26531;BME280;14201;43.188;24.160;2023-05-03T02:34:30;99904.56;;;11.82;73.20
26531;BME280;14201;43.188;24.160;2023-05-03T02:36:56;99901.53;;;11.93;72.52
26531;BME280;14201;43.188;24.160;2023-05-03T02:39:21;99878.75;;;12.11;72.42
26531;BME280;14201;43.188;24.160;2023-05-03T02:41:47;99867.59;;;11.93;73.69
26531;BME280;14201;43.188;24.160;2023-05-03T02:44:12;99882.41;;;11.52;77.99
26531;BME280;14201;43.188;24.160;2023-05-03T02:46:38;99880.25;;;11.22;78.24
26531;BME280;14201;43.188;24.160;2023-05-03T02:49:04;99883.41;;;11.55;76.37
26531;BME280;14201;43.188;24.160;2023-05-03T02:51:30;99902.06;;;11.24;77.24
26531;BME280;14201;43.188;24.160;2023-05-03T02:53:56;99920.94;;;10.79;78.94
26531;BME280;14201;43.188;24.160;2023-05-03T02:56:22;99889.47;;;10.75;78.99
26531;BME280;14201;43.188;24.160;2023-05-03T02:58:50;99891.81;;;10.88;78.82
26531;BME280;14201;43.188;24.160;2023-05-03T03:01:16;99889.34;;;11.32;76.95
26531;BME280;14201;43.188;24.160;2023-05-03T03:03:41;99889.13;;;11.47;77.60
26531;BME280;14201;43.188;24.160;2023-05-03T03:06:07;99889.22;;;11.69;77.16
26531;BME280;14201;43.188;24.160;2023-05-03T03:08:32;99898.50;;;11.83;76.04
26531;BME280;14201;43.188;24.160;2023-05-03T03:10:58;99916.63;;;12.00;74.84
26531;BME280;14201;43.188;24.160;2023-05-03T03:13:23;99902.88;;;12.04;75.55
26531;BME280;14201;43.188;24.160;2023-05-03T03:15:49;99899.72;;;12.13;74.62
26531;BME280;14201;43.188;24.160;2023-05-03T03:18:15;99897.78;;;12.30;72.98
26531;BME280;14201;43.188;24.160;2023-05-03T03:20:41;99912.97;;;12.40;73.12
26531;BME280;14201;43.188;24.160;2023-05-03T03:23:07;99916.19;;;12.55;72.02
26531;BME280;14201;43.188;24.160;2023-05-03T03:25:33;99918.31;;;12.66;72.88
26531;BME280;14201;43.188;24.160;2023-05-03T03:27:58;99927.16;;;12.69;72.73
26531;BME280;14201;43.188;24.160;2023-05-03T03:30:25;99925.56;;;12.73;73.06
26531;BME280;14201;43.188;24.160;2023-05-03T03:32:51;99928.34;;;12.77;74.05
26531;BME280;14201;43.188;24.160;2023-05-03T03:35:17;99933.31;;;12.70;74.39
26531;BME280;14201;43.188;24.160;2023-05-03T03:37:42;99930.41;;;12.62;74.44
26531;BME280;14201;43.188;24.160;2023-05-03T03:40:08;99938.56;;;12.71;75.30
26531;BME280;14201;43.188;24.160;2023-05-03T03:42:34;99947.03;;;12.64;74.78
26531;BME280;14201;43.188;24.160;2023-05-03T03:45:00;99914.28;;;12.51;75.69
26531;BME280;14201;43.188;24.160;2023-05-03T03:47:26;99944.28;;;12.61;77.40
26531;BME280;14201;43.188;24.160;2023-05-03T03:49:51;99956.63;;;11.79;80.48
26531;BME280;14201;43.188;24.160;2023-05-03T03:52:17;99957.22;;;11.53;84.48
26531;BME280;14201;43.188;24.160;2023-05-03T03:54:42;99926.84;;;11.14;84.97
26531;BME280;14201;43.188;24.160;2023-05-03T03:57:08;99976.03;;;11.46;87.16
26531;BME280;14201;43.188;24.160;2023-05-03T03:59:34;99964.06;;;11.70;86.47
26531;BME280;14201;43.188;24.160;2023-05-03T04:01:59;99959.97;;;11.96;86.22
26531;BME280;14201;43.188;24.160;2023-05-03T04:04:25;99954.56;;;11.72;85.81
26531;BME280;14201;43.188;24.160;2023-05-03T04:06:50;99949.72;;;12.01;85.22
26531;BME280;14201;43.188;24.160;2023-05-03T04:09:16;99954.06;;;12.21;84.10
26531;BME280;14201;43.188;24.160;2023-05-03T04:11:42;99953.72;;;12.35;82.14
26531;BME280;14201;43.188;24.160;2023-05-03T04:14:07;99959.06;;;12.38;81.43
26531;BME280;14201;43.188;24.160;2023-05-03T04:16:33;99960.22;;;12.45;82.18
26531;BME280;14201;43.188;24.160;2023-05-03T04:18:59;99955.44;;;12.57;82.75
26531;BME280;14201;43.188;24.160;2023-05-03T04:21:25;99972.66;;;12.52;82.81
26531;BME280;14201;43.188;24.160;2023-05-03T04:23:53;99972.13;;;12.17;83.73
26531;BME280;14201;43.188;24.160;2023-05-03T04:26:19;99973.22;;;12.22;80.75
26531;BME280;14201;43.188;24.160;2023-05-03T04:28:46;99989.91;;;12.26;84.13
26531;BME280;14201;43.188;24.160;2023-05-03T04:31:12;99980.97;;;11.99;80.65
26531;BME280;14201;43.188;24.160;2023-05-03T04:33:39;99999.00;;;12.14;78.41
26531;BME280;14201;43.188;24.160;2023-05-03T04:36:05;99994.88;;;12.19;77.94
26531;BME280;14201;43.188;24.160;2023-05-03T04:38:31;100011.28;;;12.17;80.04
26531;BME280;14201;43.188;24.160;2023-05-03T04:40:56;100020.34;;;12.25;80.16
26531;BME280;14201;43.188;24.160;2023-05-03T04:43:22;100021.03;;;12.42;81.86
26531;BME280;14201;43.188;24.160;2023-05-03T04:45:50;100026.16;;;12.39;79.95
26531;BME280;14201;43.188;24.160;2023-05-03T04:48:16;100016.44;;;12.57;84.14
26531;BME280;14201;43.188;24.160;2023-05-03T04:50:42;100021.19;;;12.68;81.96
26531;BME280;14201;43.188;24.160;2023-05-03T04:53:07;100017.34;;;12.80;81.16
26531;BME280;14201;43.188;24.160;2023-05-03T04:55:33;100011.34;;;12.83;81.38
26531;BME280;14201;43.188;24.160;2023-05-03T04:57:59;99999.53;;;12.93;84.03
26531;BME280;14201;43.188;24.160;2023-05-03T05:00:24;100008.94;;;12.88;85.86
26531;BME280;14201;43.188;24.160;2023-05-03T05:02:50;99996.75;;;12.88;88.92
26531;BME280;14201;43.188;24.160;2023-05-03T05:05:16;99999.78;;;12.99;88.88
26531;BME280;14201;43.188;24.160;2023-05-03T05:07:41;100013.16;;;13.07;86.43
26531;BME280;14201;43.188;24.160;2023-05-03T05:10:07;100024.56;;;13.09;82.51
26531;BME280;14201;43.188;24.160;2023-05-03T05:12:33;100017.94;;;13.18;82.70
26531;BME280;14201;43.188;24.160;2023-05-03T05:14:59;100030.00;;;12.92;82.26
26531;BME280;14201;43.188;24.160;2023-05-03T05:17:24;100033.28;;;12.87;83.19
26531;BME280;14201;43.188;24.160;2023-05-03T05:19:51;100034.41;;;12.93;84.03
26531;BME280;14201;43.188;24.160;2023-05-03T05:22:16;100036.31;;;12.97;83.44
26531;BME280;14201;43.188;24.160;2023-05-03T05:24:42;100055.75;;;13.04;82.62
26531;BME280;14201;43.188;24.160;2023-05-03T05:27:08;100069.13;;;13.12;82.73
26531;BME280;14201;43.188;24.160;2023-05-03T05:29:33;100062.44;;;13.20;81.10
26531;BME280;14201;43.188;24.160;2023-05-03T05:31:59;100052.25;;;13.04;82.70
26531;BME280;14201;43.188;24.160;2023-05-03T05:34:27;100074.69;;;12.98;89.52
26531;BME280;14201;43.188;24.160;2023-05-03T05:36:53;100071.63;;;12.65;92.46
26531;BME280;14201;43.188;24.160;2023-05-03T05:39:18;100073.59;;;12.71;93.57
26531;BME280;14201;43.188;24.160;2023-05-03T05:41:45;100077.13;;;12.94;90.45
26531;BME280;14201;43.188;24.160;2023-05-03T05:44:10;100089.09;;;12.87;91.21
26531;BME280;14201;43.188;24.160;2023-05-03T05:46:37;100090.53;;;13.02;91.71
26531;BME280;14201;43.188;24.160;2023-05-03T05:49:03;100088.97;;;13.29;90.31
26531;BME280;14201;43.188;24.160;2023-05-03T05:51:28;100083.22;;;13.15;90.04
26531;BME280;14201;43.188;24.160;2023-05-03T05:53:56;100097.31;;;13.19;91.04
26531;BME280;14201;43.188;24.160;2023-05-03T05:56:21;100105.94;;;13.16;91.95
26531;BME280;14201;43.188;24.160;2023-05-03T05:58:47;100101.94;;;13.26;92.88
26531;BME280;14201;43.188;24.160;2023-05-03T06:01:13;100093.50;;;13.11;94.84
26531;BME280;14201;43.188;24.160;2023-05-03T06:03:38;100093.91;;;12.99;93.48
26531;BME280;14201;43.188;24.160;2023-05-03T06:06:04;100091.13;;;13.17;91.96
26531;BME280;14201;43.188;24.160;2023-05-03T06:08:29;100083.69;;;13.05;93.31
26531;BME280;14201;43.188;24.160;2023-05-03T06:10:55;100096.56;;;13.00;92.88
26531;BME280;14201;43.188;24.160;2023-05-03T06:13:21;100092.28;;;13.03;90.91
26531;BME280;14201;43.188;24.160;2023-05-03T06:15:47;100098.78;;;13.12;90.08
26531;BME280;14201;43.188;24.160;2023-05-03T06:18:12;100088.59;;;13.20;87.91
26531;BME280;14201;43.188;24.160;2023-05-03T06:20:38;100105.78;;;13.34;87.13
26531;BME280;14201;43.188;24.160;2023-05-03T06:23:04;100107.09;;;13.46;88.73
26531;BME280;14201;43.188;24.160;2023-05-03T06:25:30;100109.44;;;13.39;90.21
26531;BME280;14201;43.188;24.160;2023-05-03T06:27:55;100105.13;;;13.40;89.80
26531;BME280;14201;43.188;24.160;2023-05-03T06:30:21;100113.22;;;13.46;88.83
26531;BME280;14201;43.188;24.160;2023-05-03T06:32:48;100101.50;;;13.59;88.12
26531;BME280;14201;43.188;24.160;2023-05-03T06:35:13;100100.44;;;13.78;90.35
26531;BME280;14201;43.188;24.160;2023-05-03T06:37:40;100075.09;;;13.77;91.45
26531;BME280;14201;43.188;24.160;2023-05-03T06:40:08;100089.22;;;14.06;88.64
26531;BME280;14201;43.188;24.160;2023-05-03T06:42:34;100087.47;;;14.31;85.04
26531;BME280;14201;43.188;24.160;2023-05-03T06:44:59;100079.28;;;14.47;84.47
26531;BME280;14201;43.188;24.160;2023-05-03T06:47:25;100065.44;;;14.51;88.82
26531;BME280;14201;43.188;24.160;2023-05-03T06:49:50;100073.66;;;14.61;90.23
26531;BME280;14201;43.188;24.160;2023-05-03T06:52:16;100070.41;;;14.68;82.61
26531;BME280;14201;43.188;24.160;2023-05-03T06:54:42;100087.81;;;14.93;77.31
26531;BME280;14201;43.188;24.160;2023-05-03T06:57:08;100093.03;;;15.20;78.60
26531;BME280;14201;43.188;24.160;2023-05-03T06:59:34;100098.94;;;15.42;74.00
26531;BME280;14201;43.188;24.160;2023-05-03T07:02:00;100091.59;;;15.60;76.82
26531;BME280;14201;43.188;24.160;2023-05-03T07:04:26;100081.31;;;15.68;77.64
26531;BME280;14201;43.188;24.160;2023-05-03T07:06:52;100096.81;;;15.89;76.17
26531;BME280;14201;43.188;24.160;2023-05-03T07:09:17;100089.53;;;16.10;75.15
26531;BME280;14201;43.188;24.160;2023-05-03T07:11:43;100086.47;;;16.27;72.72
26531;BME280;14201;43.188;24.160;2023-05-03T07:14:14;100088.78;;;16.49;74.07
26531;BME280;14201;43.188;24.160;2023-05-03T07:16:40;100098.19;;;16.74;73.05
26531;BME280;14201;43.188;24.160;2023-05-03T07:19:06;100095.78;;;16.82;72.28
26531;BME280;14201;43.188;24.160;2023-05-03T07:21:32;100087.19;;;16.89;73.44
26531;BME280;14201;43.188;24.160;2023-05-03T07:23:58;100089.19;;;17.00;61.03
26531;BME280;14201;43.188;24.160;2023-05-03T07:26:24;100099.56;;;16.93;61.36
26531;BME280;14201;43.188;24.160;2023-05-03T07:28:51;100093.03;;;16.78;61.82
26531;BME280;14201;43.188;24.160;2023-05-03T07:31:17;100088.63;;;16.78;61.44
26531;BME280;14201;43.188;24.160;2023-05-03T07:33:43;100097.56;;;16.83;59.96
26531;BME280;14201;43.188;24.160;2023-05-03T07:36:08;100099.66;;;16.97;60.34
26531;BME280;14201;43.188;24.160;2023-05-03T07:38:34;100098.03;;;17.03;63.10
26531;BME280;14201;43.188;24.160;2023-05-03T07:41:00;100092.69;;;16.99;63.95
26531;BME280;14201;43.188;24.160;2023-05-03T07:43:25;100094.94;;;17.21;63.42
26531;BME280;14201;43.188;24.160;2023-05-03T07:45:51;100091.56;;;17.25;63.36
26531;BME280;14201;43.188;24.160;2023-05-03T07:48:17;100084.06;;;17.06;59.65
26531;BME280;14201;43.188;24.160;2023-05-03T07:50:43;100092.06;;;17.10;57.24
26531;BME280;14201;43.188;24.160;2023-05-03T07:53:10;100098.44;;;17.20;63.52
26531;BME280;14201;43.188;24.160;2023-05-03T07:55:37;100101.44;;;17.36;64.39
26531;BME280;14201;43.188;24.160;2023-05-03T07:58:03;100106.09;;;17.49;63.26
26531;BME280;14201;43.188;24.160;2023-05-03T08:00:29;100102.38;;;17.80;55.86
26531;BME280;14201;43.188;24.160;2023-05-03T08:02:54;100092.81;;;17.84;58.13
26531;BME280;14201;43.188;24.160;2023-05-03T08:05:20;100090.47;;;17.98;53.71
26531;BME280;14201;43.188;24.160;2023-05-03T08:07:46;100103.66;;;17.99;57.97
26531;BME280;14201;43.188;24.160;2023-05-03T08:10:11;100093.34;;;18.12;58.88
26531;BME280;14201;43.188;24.160;2023-05-03T08:12:37;100088.03;;;18.10;60.74
26531;BME280;14201;43.188;24.160;2023-05-03T08:15:03;100093.41;;;18.15;60.56
26531;BME280;14201;43.188;24.160;2023-05-03T08:17:31;100093.59;;;18.25;61.08
26531;BME280;14201;43.188;24.160;2023-05-03T08:19:57;100095.41;;;18.28;61.54
26531;BME280;14201;43.188;24.160;2023-05-03T08:22:23;100092.03;;;18.35;60.58
26531;BME280;14201;43.188;24.160;2023-05-03T08:24:51;100085.19;;;18.46;58.11
26531;BME280;14201;43.188;24.160;2023-05-03T08:27:17;100080.03;;;18.53;57.36
26531;BME280;14201;43.188;24.160;2023-05-03T08:29:43;100072.97;;;18.52;60.30
26531;BME280;14201;43.188;24.160;2023-05-03T08:32:09;100070.22;;;18.45;61.49
26531;BME280;14201;43.188;24.160;2023-05-03T08:34:35;100071.34;;;18.60;62.15
26531;BME280;14201;43.188;24.160;2023-05-03T08:37:01;100076.81;;;18.72;59.76
26531;BME280;14201;43.188;24.160;2023-05-03T08:39:28;100058.59;;;18.86;59.12
26531;BME280;14201;43.188;24.160;2023-05-03T08:41:56;100057.03;;;18.99;58.77
26531;BME280;14201;43.188;24.160;2023-05-03T08:44:23;100064.31;;;19.15;61.19
26531;BME280;14201;43.188;24.160;2023-05-03T08:46:52;100059.97;;;19.19;62.05
26531;BME280;14201;43.188;24.160;2023-05-03T08:49:17;100038.94;;;19.26;60.75
26531;BME280;14201;43.188;24.160;2023-05-03T08:51:44;100052.41;;;19.45;59.21
26531;BME280;14201;43.188;24.160;2023-05-03T08:54:14;100054.28;;;19.55;59.39
26531;BME280;14201;43.188;24.160;2023-05-03T08:56:42;100048.38;;;19.75;57.71
26531;BME280;14201;43.188;24.160;2023-05-03T08:59:09;100053.00;;;19.91;56.75
26531;BME280;14201;43.188;24.160;2023-05-03T09:01:39;100045.22;;;20.10;57.59
26531;BME280;14201;43.188;24.160;2023-05-03T09:04:06;100050.72;;;20.31;58.39
26531;BME280;14201;43.188;24.160;2023-05-03T09:06:32;100051.66;;;20.36;54.95
26531;BME280;14201;43.188;24.160;2023-05-03T09:08:59;100040.28;;;20.46;55.34
26531;BME280;14201;43.188;24.160;2023-05-03T09:11:29;100048.38;;;20.62;50.40
26531;BME280;14201;43.188;24.160;2023-05-03T09:14:16;100040.66;;;20.91;48.62
26531;BME280;14201;43.188;24.160;2023-05-03T09:16:44;100032.75;;;20.94;51.17
26531;BME280;14201;43.188;24.160;2023-05-03T09:19:12;100033.66;;;21.02;50.18
26531;BME280;14201;43.188;24.160;2023-05-03T09:21:43;100039.88;;;21.06;52.82
26531;BME280;14201;43.188;24.160;2023-05-03T09:24:15;100051.44;;;21.27;56.73
26531;BME280;14201;43.188;24.160;2023-05-03T09:26:42;100052.44;;;21.42;56.76
26531;BME280;14201;43.188;24.160;2023-05-03T09:29:08;100056.09;;;21.60;52.20
26531;BME280;14201;43.188;24.160;2023-05-03T09:31:35;100058.78;;;21.74;53.41
26531;BME280;14201;43.188;24.160;2023-05-03T09:34:02;100057.91;;;21.82;50.53
26531;BME280;14201;43.188;24.160;2023-05-03T09:36:46;100064.19;;;21.98;52.07
26531;BME280;14201;43.188;24.160;2023-05-03T09:39:16;100057.09;;;22.05;50.12
26531;BME280;14201;43.188;24.160;2023-05-03T09:41:41;100062.41;;;22.07;49.78
26531;BME280;14201;43.188;24.160;2023-05-03T09:44:07;100064.19;;;21.98;49.84
26531;BME280;14201;43.188;24.160;2023-05-03T09:46:33;100057.97;;;22.04;48.61
26531;BME280;14201;43.188;24.160;2023-05-03T09:48:58;100046.53;;;22.16;49.50
26531;BME280;14201;43.188;24.160;2023-05-03T09:51:25;100034.16;;;22.41;51.24
26531;BME280;14201;43.188;24.160;2023-05-03T09:53:52;100032.34;;;22.97;51.42
26531;BME280;14201;43.188;24.160;2023-05-03T09:56:20;100027.03;;;23.15;48.05
26531;BME280;14201;43.188;24.160;2023-05-03T09:58:50;100034.81;;;23.63;46.21
26531;BME280;14201;43.188;24.160;2023-05-03T10:01:16;100035.72;;;23.65;42.43
26531;BME280;14201;43.188;24.160;2023-05-03T10:03:42;100035.69;;;23.67;45.42
26531;BME280;14201;43.188;24.160;2023-05-03T10:09:11;100021.63;;;23.48;46.17
26531;BME280;14201;43.188;24.160;2023-05-03T10:11:34;100020.53;;;23.90;46.66
26531;BME280;14201;43.188;24.160;2023-05-03T10:14:05;100020.31;;;24.24;45.01
26531;BME280;14201;43.188;24.160;2023-05-03T10:16:35;100026.31;;;24.54;45.84
26531;BME280;14201;43.188;24.160;2023-05-03T10:19:13;100016.22;;;24.87;43.60
26531;BME280;14201;43.188;24.160;2023-05-03T10:24:13;100010.72;;;25.07;39.10
26531;BME280;14201;43.188;24.160;2023-05-03T10:26:46;100014.03;;;25.27;44.17
26531;BME280;14201;43.188;24.160;2023-05-03T10:32:03;100014.91;;;25.28;42.00
26531;BME280;14201;43.188;24.160;2023-05-03T10:34:35;100010.59;;;25.16;39.35
26531;BME280;14201;43.188;24.160;2023-05-03T10:37:08;100016.88;;;25.10;40.60
26531;BME280;14201;43.188;24.160;2023-05-03T10:39:34;100007.53;;;25.51;41.28
26531;BME280;14201;43.188;24.160;2023-05-03T10:42:04;99992.84;;;25.85;40.59
26531;BME280;14201;43.188;24.160;2023-05-03T10:44:37;99993.13;;;26.27;40.43
26531;BME280;14201;43.188;24.160;2023-05-03T10:47:12;99998.97;;;25.90;36.55
26531;BME280;14201;43.188;24.160;2023-05-03T10:49:38;99993.25;;;25.56;40.27
26531;BME280;14201;43.188;24.160;2023-05-03T10:55:18;99993.63;;;25.26;36.56
26531;BME280;14201;43.188;24.160;2023-05-03T10:57:45;99992.88;;;25.10;37.75
26531;BME280;14201;43.188;24.160;2023-05-03T11:02:40;99985.41;;;26.07;41.05
26531;BME280;14201;43.188;24.160;2023-05-03T11:05:07;99984.22;;;26.25;36.13
26531;BME280;14201;43.188;24.160;2023-05-03T11:07:34;99976.63;;;26.02;39.39
26531;BME280;14201;43.188;24.160;2023-05-03T11:10:00;99962.22;;;26.10;36.77
26531;BME280;14201;43.188;24.160;2023-05-03T11:12:26;99964.66;;;25.67;35.37
26531;BME280;14201;43.188;24.160;2023-05-03T11:14:51;99953.63;;;25.91;38.33
26531;BME280;14201;43.188;24.160;2023-05-03T11:17:17;99958.56;;;26.18;37.23
26531;BME280;14201;43.188;24.160;2023-05-03T11:19:43;99945.06;;;26.27;35.32
26531;BME280;14201;43.188;24.160;2023-05-03T11:22:09;99946.97;;;26.17;37.02
26531;BME280;14201;43.188;24.160;2023-05-03T11:24:36;99954.28;;;26.06;38.11
26531;BME280;14201;43.188;24.160;2023-05-03T11:27:02;99950.59;;;26.13;37.89
26531;BME280;14201;43.188;24.160;2023-05-03T11:29:28;99950.56;;;26.16;37.63
26531;BME280;14201;43.188;24.160;2023-05-03T11:31:54;99952.41;;;26.12;37.49
26531;BME280;14201;43.188;24.160;2023-05-03T11:34:19;99947.84;;;26.19;37.66
26531;BME280;14201;43.188;24.160;2023-05-03T11:36:45;99949.59;;;26.20;35.90
26531;BME280;14201;43.188;24.160;2023-05-03T11:39:11;99953.16;;;26.21;35.64
26531;BME280;14201;43.188;24.160;2023-05-03T11:41:37;99957.59;;;26.20;35.30
26531;BME280;14201;43.188;24.160;2023-05-03T11:44:03;99958.41;;;26.27;33.94
26531;BME280;14201;43.188;24.160;2023-05-03T11:46:32;99952.63;;;26.50;36.66
26531;BME280;14201;43.188;24.160;2023-05-03T11:49:00;99952.13;;;26.28;36.19
26531;BME280;14201;43.188;24.160;2023-05-03T11:51:27;99948.03;;;26.07;36.31
26531;BME280;14201;43.188;24.160;2023-05-03T11:53:52;99949.56;;;26.23;37.66
26531;BME280;14201;43.188;24.160;2023-05-03T11:56:18;99930.19;;;25.50;35.21
26531;BME280;14201;43.188;24.160;2023-05-03T12:01:21;99917.91;;;25.99;37.02
26531;BME280;14201;43.188;24.160;2023-05-03T12:03:55;99926.50;;;26.19;37.46
26531;BME280;14201;43.188;24.160;2023-05-03T12:06:21;99909.09;;;25.93;35.91
26531;BME280;14201;43.188;24.160;2023-05-03T12:08:47;99909.38;;;25.08;36.05
26531;BME280;14201;43.188;24.160;2023-05-03T12:11:13;99896.47;;;24.73;37.29
26531;BME280;14201;43.188;24.160;2023-05-03T12:13:39;99903.75;;;24.57;38.35
26531;BME280;14201;43.188;24.160;2023-05-03T12:16:06;99908.09;;;24.66;37.00
26531;BME280;14201;43.188;24.160;2023-05-03T12:21:14;99903.00;;;25.20;37.70
26531;BME280;14201;43.188;24.160;2023-05-03T12:23:40;99899.44;;;25.20;36.89
26531;BME280;14201;43.188;24.160;2023-05-03T12:26:06;99900.16;;;24.64;38.86
26531;BME280;14201;43.188;24.160;2023-05-03T12:28:32;99891.28;;;23.54;40.22
26531;BME280;14201;43.188;24.160;2023-05-03T12:30:58;99895.56;;;23.80;41.83
26531;BME280;14201;43.188;24.160;2023-05-03T12:33:24;99890.84;;;24.12;41.37
26531;BME280;14201;43.188;24.160;2023-05-03T12:35:50;99889.66;;;23.27;41.02
26531;BME280;14201;43.188;24.160;2023-05-03T12:38:16;99881.78;;;23.13;40.76
26531;BME280;14201;43.188;24.160;2023-05-03T12:40:42;99859.69;;;23.03;42.61
26531;BME280;14201;43.188;24.160;2023-05-03T12:43:09;99874.59;;;23.29;42.29
26531;BME280;14201;43.188;24.160;2023-05-03T12:45:35;99863.06;;;23.34;42.40
26531;BME280;14201;43.188;24.160;2023-05-03T12:48:01;99865.66;;;23.41;41.64
26531;BME280;14201;43.188;24.160;2023-05-03T12:50:27;99856.88;;;23.28;42.22
26531;BME280;14201;43.188;24.160;2023-05-03T12:52:53;99849.91;;;23.08;43.22
26531;BME280;14201;43.188;24.160;2023-05-03T12:55:18;99859.66;;;23.06;41.51
26531;BME280;14201;43.188;24.160;2023-05-03T12:57:44;99849.91;;;22.99;41.99
26531;BME280;14201;43.188;24.160;2023-05-03T13:00:11;99849.91;;;23.08;42.72
26531;BME280;14201;43.188;24.160;2023-05-03T13:02:37;99831.19;;;23.22;41.87
26531;BME280;14201;43.188;24.160;2023-05-03T13:05:03;99834.63;;;23.43;42.15
26531;BME280;14201;43.188;24.160;2023-05-03T13:07:29;99839.03;;;23.45;43.61